sensor_id;sensor_type;location;lat;lon;timestamp;pressure;altitude;pressure_sealevel;temperature;humidity
51313;BME280;37397;53.226;10.400;2022-09-09T00:01:08;100431.91;;;17.49;65.48
51313;BME280;37397;53.226;10.400;2022-09-09T00:03:48;100436.09;;;17.48;65.43
51313;BME280;37397;53.226;10.400;2022-09-09T00:06:28;100426.13;;;17.49;65.46
51313;BME280;37397;53.226;10.400;2022-09-09T00:09:01;100430.34;;;17.48;65.48
51313;BME280;37397;53.226;10.400;2022-09-09T00:11:36;100423.03;;;17.47;65.22
51313;BME280;37397;53.226;10.400;2022-09-09T00:17:24;100425.19;;;17.41;65.34
51313;BME280;37397;53.226;10.400;2022-09-09T00:19:59;100427.03;;;17.38;65.11
51313;BME280;37397;53.226;10.400;2022-09-09T00:22:30;100430.69;;;17.39;65.36
51313;BME280;37397;53.226;10.400;2022-09-09T00:25:09;100422.84;;;17.39;65.50
51313;BME280;37397;53.226;10.400;2022-09-09T00:27:45;100421.50;;;17.40;65.49
51313;BME280;37397;53.226;10.400;2022-09-09T00:32:52;100428.84;;;17.41;65.72
51313;BME280;37397;53.226;10.400;2022-09-09T00:35:32;100422.84;;;17.39;65.35
51313;BME280;37397;53.226;10.400;2022-09-09T00:38:06;100411.28;;;17.39;65.40
51313;BME280;37397;53.226;10.400;2022-09-09T00:40:44;100427.25;;;17.40;65.51
51313;BME280;37397;53.226;10.400;2022-09-09T00:43:28;100413.16;;;17.37;65.18
51313;BME280;37397;53.226;10.400;2022-09-09T00:48:59;100411.84;;;17.38;65.16
51313;BME280;37397;53.226;10.400;2022-09-09T00:54:26;100411.59;;;17.36;65.12
51313;BME280;37397;53.226;10.400;2022-09-09T01:02:27;100410.34;;;17.31;65.38
51313;BME280;37397;53.226;10.400;2022-09-09T01:05:03;100410.34;;;17.31;65.16
51313;BME280;37397;53.226;10.400;2022-09-09T01:07:31;100405.09;;;17.29;65.17
51313;BME280;37397;53.226;10.400;2022-09-09T01:10:00;100408.75;;;17.30;65.15
51313;BME280;37397;53.226;10.400;2022-09-09T01:12:41;100408.00;;;17.29;65.00
51313;BME280;37397;53.226;10.400;2022-09-09T01:15:19;100417.94;;;17.28;65.29
51313;BME280;37397;53.226;10.400;2022-09-09T01:18:05;100423.72;;;17.28;65.42
51313;BME280;37397;53.226;10.400;2022-09-09T01:26:34;100409.38;;;17.23;65.54
51313;BME280;37397;53.226;10.400;2022-09-09T01:29:12;100406.22;;;17.21;65.65
51313;BME280;37397;53.226;10.400;2022-09-09T01:31:51;100406.22;;;17.21;65.65
51313;BME280;37397;53.226;10.400;2022-09-09T01:34:20;100405.44;;;17.20;65.48
51313;BME280;37397;53.226;10.400;2022-09-09T01:37:03;100409.63;;;17.19;65.38
51313;BME280;37397;53.226;10.400;2022-09-09T01:39:33;100414.63;;;17.19;65.22
51313;BME280;37397;53.226;10.400;2022-09-09T01:42:06;100400.22;;;17.19;65.59
51313;BME280;37397;53.226;10.400;2022-09-09T01:44:34;100401.53;;;17.18;65.34
51313;BME280;37397;53.226;10.400;2022-09-09T01:47:03;100399.97;;;17.17;65.14
51313;BME280;37397;53.226;10.400;2022-09-09T01:49:30;100404.72;;;17.14;65.27
51313;BME280;37397;53.226;10.400;2022-09-09T01:51:57;100407.59;;;17.14;65.56
51313;BME280;37397;53.226;10.400;2022-09-09T01:54:32;100417.59;;;17.13;65.31
51313;BME280;37397;53.226;10.400;2022-09-09T02:00:03;100409.22;;;17.09;65.28
51313;BME280;37397;53.226;10.400;2022-09-09T02:03:00;100415.50;;;17.08;65.17
51313;BME280;37397;53.226;10.400;2022-09-09T02:06:03;100423.94;;;17.06;65.34
51313;BME280;37397;53.226;10.400;2022-09-09T02:08:49;100406.94;;;17.02;65.32
51313;BME280;37397;53.226;10.400;2022-09-09T02:11:18;100410.03;;;17.04;65.67
51313;BME280;37397;53.226;10.400;2022-09-09T02:14:01;100404.81;;;17.03;65.52
51313;BME280;37397;53.226;10.400;2022-09-09T02:16:35;100408.22;;;17.01;65.53
51313;BME280;37397;53.226;10.400;2022-09-09T02:19:14;100415.34;;;17.00;65.62
51313;BME280;37397;53.226;10.400;2022-09-09T02:21:59;100406.97;;;16.97;65.52
51313;BME280;37397;53.226;10.400;2022-09-09T02:24:27;100404.88;;;16.97;65.63
51313;BME280;37397;53.226;10.400;2022-09-09T02:27:09;100405.41;;;16.95;65.62
51313;BME280;37397;53.226;10.400;2022-09-09T02:29:41;100399.38;;;16.93;65.55
51313;BME280;37397;53.226;10.400;2022-09-09T02:32:13;100404.38;;;16.93;65.40
51313;BME280;37397;53.226;10.400;2022-09-09T02:34:47;100403.34;;;16.90;65.53
51313;BME280;37397;53.226;10.400;2022-09-09T02:37:17;100402.56;;;16.90;65.86
51313;BME280;37397;53.226;10.400;2022-09-09T02:39:50;100403.09;;;16.88;65.77
51313;BME280;37397;53.226;10.400;2022-09-09T02:42:19;100412.28;;;16.87;65.84
51313;BME280;37397;53.226;10.400;2022-09-09T02:44:46;100412.28;;;16.87;65.90
51313;BME280;37397;53.226;10.400;2022-09-09T02:47:25;100396.03;;;16.84;65.63
51313;BME280;37397;53.226;10.400;2022-09-09T02:50:25;100407.56;;;16.84;65.74
51313;BME280;37397;53.226;10.400;2022-09-09T02:53:04;100410.22;;;16.82;65.70
51313;BME280;37397;53.226;10.400;2022-09-09T02:58:15;100409.16;;;16.79;65.92
51313;BME280;37397;53.226;10.400;2022-09-09T03:00:50;100405.28;;;16.76;65.58
51313;BME280;37397;53.226;10.400;2022-09-09T03:03:19;100417.56;;;16.77;65.59
51313;BME280;37397;53.226;10.400;2022-09-09T03:05:49;100415.22;;;16.75;65.63
51313;BME280;37397;53.226;10.400;2022-09-09T03:08:15;100410.00;;;16.74;65.50
51313;BME280;37397;53.226;10.400;2022-09-09T03:10:43;100406.88;;;16.72;65.59
51313;BME280;37397;53.226;10.400;2022-09-09T03:13:12;100405.31;;;16.71;65.90
51313;BME280;37397;53.226;10.400;2022-09-09T03:15:42;100406.63;;;16.70;65.74
51313;BME280;37397;53.226;10.400;2022-09-09T03:18:13;100415.28;;;16.70;65.75
51313;BME280;37397;53.226;10.400;2022-09-09T03:20:40;100405.59;;;16.67;65.80
51313;BME280;37397;53.226;10.400;2022-09-09T03:23:09;100412.66;;;16.66;65.61
51313;BME280;37397;53.226;10.400;2022-09-09T03:25:48;100415.31;;;16.64;65.81
51313;BME280;37397;53.226;10.400;2022-09-09T03:28:19;100415.31;;;16.64;65.62
51313;BME280;37397;53.226;10.400;2022-09-09T03:30:47;100410.88;;;16.63;65.82
51313;BME280;37397;53.226;10.400;2022-09-09T03:33:14;100418.72;;;16.63;65.70
51313;BME280;37397;53.226;10.400;2022-09-09T03:35:46;100417.72;;;16.60;65.82
51313;BME280;37397;53.226;10.400;2022-09-09T03:38:17;100421.91;;;16.59;66.01
51313;BME280;37397;53.226;10.400;2022-09-09T03:40:51;100413.00;;;16.57;65.92
51313;BME280;37397;53.226;10.400;2022-09-09T03:43:22;100415.09;;;16.56;65.84
51313;BME280;37397;53.226;10.400;2022-09-09T03:45:51;100421.38;;;16.55;66.08
51313;BME280;37397;53.226;10.400;2022-09-09T03:48:19;100435.00;;;16.54;66.08
51313;BME280;37397;53.226;10.400;2022-09-09T03:50:47;100437.13;;;16.54;65.72
51313;BME280;37397;53.226;10.400;2022-09-09T03:53:15;100438.44;;;16.53;65.84
51313;BME280;37397;53.226;10.400;2022-09-09T03:55:50;100430.31;;;16.51;65.76
51313;BME280;37397;53.226;10.400;2022-09-09T03:58:18;100430.06;;;16.49;65.69
51313;BME280;37397;53.226;10.400;2022-09-09T04:00:53;100428.50;;;16.48;65.69
51313;BME280;37397;53.226;10.400;2022-09-09T04:03:20;100420.41;;;16.47;66.04
51313;BME280;37397;53.226;10.400;2022-09-09T04:05:54;100418.84;;;16.46;65.78
51313;BME280;37397;53.226;10.400;2022-09-09T04:08:23;100419.91;;;16.43;65.87
51313;BME280;37397;53.226;10.400;2022-09-09T04:10:53;100421.47;;;16.44;65.79
51313;BME280;37397;53.226;10.400;2022-09-09T04:13:19;100424.88;;;16.42;65.95
51313;BME280;37397;53.226;10.400;2022-09-09T04:15:54;100424.09;;;16.41;65.96
51313;BME280;37397;53.226;10.400;2022-09-09T04:18:22;100426.72;;;16.39;65.84
51313;BME280;37397;53.226;10.400;2022-09-09T04:20:50;100427.78;;;16.36;65.71
51313;BME280;37397;53.226;10.400;2022-09-09T04:23:20;100427.25;;;16.38;65.71
51313;BME280;37397;53.226;10.400;2022-09-09T04:25:52;100429.38;;;16.37;65.90
51313;BME280;37397;53.226;10.400;2022-09-09T04:28:21;100431.44;;;16.37;66.11
51313;BME280;37397;53.226;10.400;2022-09-09T04:30:48;100431.19;;;16.35;66.02
51313;BME280;37397;53.226;10.400;2022-09-09T04:33:15;100428.84;;;16.33;66.24
51313;BME280;37397;53.226;10.400;2022-09-09T04:35:46;100430.44;;;16.34;66.30
51313;BME280;37397;53.226;10.400;2022-09-09T04:38:15;100439.06;;;16.34;66.06
51313;BME280;37397;53.226;10.400;2022-09-09T04:40:43;100433.31;;;16.34;66.19
51313;BME280;37397;53.226;10.400;2022-09-09T04:43:13;100434.63;;;16.33;66.25
51313;BME280;37397;53.226;10.400;2022-09-09T04:45:43;100428.09;;;16.33;66.45
51313;BME280;37397;53.226;10.400;2022-09-09T04:48:10;100439.84;;;16.35;66.10
51313;BME280;37397;53.226;10.400;2022-09-09T04:50:36;100430.44;;;16.34;66.12
51313;BME280;37397;53.226;10.400;2022-09-09T04:53:04;100432.28;;;16.32;66.15
51313;BME280;37397;53.226;10.400;2022-09-09T04:55:34;100440.63;;;16.35;66.16
51313;BME280;37397;53.226;10.400;2022-09-09T04:58:05;100440.63;;;16.35;66.20
51313;BME280;37397;53.226;10.400;2022-09-09T05:00:32;100450.84;;;16.36;66.24
51313;BME280;37397;53.226;10.400;2022-09-09T05:03:05;100443.50;;;16.35;66.28
51313;BME280;37397;53.226;10.400;2022-09-09T05:05:33;100442.72;;;16.35;66.37
51313;BME280;37397;53.226;10.400;2022-09-09T05:08:04;100443.50;;;16.35;66.39
51313;BME280;37397;53.226;10.400;2022-09-09T05:10:32;100453.72;;;16.36;66.57
51313;BME280;37397;53.226;10.400;2022-09-09T05:12:59;100446.38;;;16.35;66.59
51313;BME280;37397;53.226;10.400;2022-09-09T05:15:28;100441.94;;;16.34;66.34
51313;BME280;37397;53.226;10.400;2022-09-09T05:17:59;100444.84;;;16.34;66.52
51313;BME280;37397;53.226;10.400;2022-09-09T05:20:29;100450.59;;;16.34;66.72
51313;BME280;37397;53.226;10.400;2022-09-09T05:22:56;100457.91;;;16.35;66.66
51313;BME280;37397;53.226;10.400;2022-09-09T05:25:26;100445.06;;;16.36;66.61
51313;BME280;37397;53.226;10.400;2022-09-09T05:27:54;100442.72;;;16.35;66.65
51313;BME280;37397;53.226;10.400;2022-09-09T05:30:21;100451.88;;;16.39;66.58
51313;BME280;37397;53.226;10.400;2022-09-09T05:32:50;100459.72;;;16.38;66.65
51313;BME280;37397;53.226;10.400;2022-09-09T05:35:17;100453.94;;;16.38;66.65
51313;BME280;37397;53.226;10.400;2022-09-09T05:37:45;100450.31;;;16.38;66.73
51313;BME280;37397;53.226;10.400;2022-09-09T05:40:12;100468.34;;;16.38;66.68
51313;BME280;37397;53.226;10.400;2022-09-09T05:42:39;100467.81;;;16.40;66.79
51313;BME280;37397;53.226;10.400;2022-09-09T05:45:08;100479.88;;;16.38;66.83
51313;BME280;37397;53.226;10.400;2022-09-09T05:47:36;100475.69;;;16.39;66.66
51313;BME280;37397;53.226;10.400;2022-09-09T05:50:05;100470.69;;;16.40;66.85
51313;BME280;37397;53.226;10.400;2022-09-09T05:52:32;100474.91;;;16.39;66.72
51313;BME280;37397;53.226;10.400;2022-09-09T05:54:59;100485.34;;;16.42;66.72
51313;BME280;37397;53.226;10.400;2022-09-09T05:57:25;100475.16;;;16.41;66.93
51313;BME280;37397;53.226;10.400;2022-09-09T05:59:52;100479.06;;;16.44;66.75
51313;BME280;37397;53.226;10.400;2022-09-09T06:02:19;100480.63;;;16.45;66.75
51313;BME280;37397;53.226;10.400;2022-09-09T06:04:46;100484.81;;;16.44;66.71
51313;BME280;37397;53.226;10.400;2022-09-09T06:07:13;100488.75;;;16.46;66.76
51313;BME280;37397;53.226;10.400;2022-09-09T06:09:40;100488.75;;;16.46;66.76
51313;BME280;37397;53.226;10.400;2022-09-09T06:12:08;100491.34;;;16.50;66.78
51313;BME280;37397;53.226;10.400;2022-09-09T06:14:35;100487.16;;;16.51;66.73
51313;BME280;37397;53.226;10.400;2022-09-09T06:17:03;100495.78;;;16.51;67.40
51313;BME280;37397;53.226;10.400;2022-09-09T06:19:30;100496.03;;;16.53;67.37
51313;BME280;37397;53.226;10.400;2022-09-09T06:21:58;100493.94;;;16.53;67.23
51313;BME280;37397;53.226;10.400;2022-09-09T06:24:26;100498.38;;;16.54;67.19
51313;BME280;37397;53.226;10.400;2022-09-09T06:26:53;100489.22;;;16.56;67.11
51313;BME280;37397;53.226;10.400;2022-09-09T06:29:25;100499.44;;;16.57;67.11
51313;BME280;37397;53.226;10.400;2022-09-09T06:31:52;100495.22;;;16.58;67.03
51313;BME280;37397;53.226;10.400;2022-09-09T06:34:21;100499.16;;;16.61;67.09
51313;BME280;37397;53.226;10.400;2022-09-09T06:36:51;100501.78;;;16.58;66.98
51313;BME280;37397;53.226;10.400;2022-09-09T06:39:18;100508.03;;;16.63;66.91
51313;BME280;37397;53.226;10.400;2022-09-09T06:41:45;100507.50;;;16.64;66.79
51313;BME280;37397;53.226;10.400;2022-09-09T06:44:34;100509.84;;;16.66;66.87
51313;BME280;37397;53.226;10.400;2022-09-09T06:47:02;100509.59;;;16.64;66.83
51313;BME280;37397;53.226;10.400;2022-09-09T06:49:30;100513.78;;;16.68;66.96
51313;BME280;37397;53.226;10.400;2022-09-09T06:51:56;100512.44;;;16.69;67.03
51313;BME280;37397;53.226;10.400;2022-09-09T06:54:24;100515.59;;;16.71;66.79
51313;BME280;37397;53.226;10.400;2022-09-09T06:56:52;100519.25;;;16.72;67.14
51313;BME280;37397;53.226;10.400;2022-09-09T06:59:22;100510.59;;;16.72;67.19
51313;BME280;37397;53.226;10.400;2022-09-09T07:01:51;100509.53;;;16.75;67.09
51313;BME280;37397;53.226;10.400;2022-09-09T07:04:21;100504.56;;;16.75;67.13
51313;BME280;37397;53.226;10.400;2022-09-09T07:06:48;100511.34;;;16.78;67.29
51313;BME280;37397;53.226;10.400;2022-09-09T07:09:20;100515.25;;;16.81;67.60
51313;BME280;37397;53.226;10.400;2022-09-09T07:11:50;100508.19;;;16.82;67.47
51313;BME280;37397;53.226;10.400;2022-09-09T07:14:20;100517.06;;;16.84;67.69
51313;BME280;37397;53.226;10.400;2022-09-09T07:16:57;100507.13;;;16.85;67.83
51313;BME280;37397;53.226;10.400;2022-09-09T07:19:26;100505.03;;;16.85;67.83
51313;BME280;37397;53.226;10.400;2022-09-09T07:21:54;100519.97;;;16.89;67.68
51313;BME280;37397;53.226;10.400;2022-09-09T07:24:22;100505.00;;;16.91;67.47
51313;BME280;37397;53.226;10.400;2022-09-09T07:26:50;100508.13;;;16.93;67.73
51313;BME280;37397;53.226;10.400;2022-09-09T07:29:18;100517.28;;;16.97;67.79
51313;BME280;37397;53.226;10.400;2022-09-09T07:31:47;100517.53;;;16.99;67.41
51313;BME280;37397;53.226;10.400;2022-09-09T07:34:19;100506.00;;;16.99;67.63
51313;BME280;37397;53.226;10.400;2022-09-09T07:36:45;100514.59;;;17.05;67.72
51313;BME280;37397;53.226;10.400;2022-09-09T07:39:14;100518.53;;;17.07;67.91
51313;BME280;37397;53.226;10.400;2022-09-09T07:41:47;100517.47;;;17.10;68.10
51313;BME280;37397;53.226;10.400;2022-09-09T07:44:19;100517.94;;;17.14;68.38
51313;BME280;37397;53.226;10.400;2022-09-09T07:46:50;100517.94;;;17.14;68.82
51313;BME280;37397;53.226;10.400;2022-09-09T07:49:22;100520.25;;;17.22;69.08
51313;BME280;37397;53.226;10.400;2022-09-09T07:51:58;100522.06;;;17.25;68.84
51313;BME280;37397;53.226;10.400;2022-09-09T07:54:25;100521.22;;;17.30;69.65
51313;BME280;37397;53.226;10.400;2022-09-09T07:56:52;100521.47;;;17.32;69.18
51313;BME280;37397;53.226;10.400;2022-09-09T07:59:21;100526.16;;;17.35;69.31
51313;BME280;37397;53.226;10.400;2022-09-09T08:01:51;100524.31;;;17.38;69.34
51313;BME280;37397;53.226;10.400;2022-09-09T08:04:25;100530.84;;;17.44;70.16
51313;BME280;37397;53.226;10.400;2022-09-09T08:06:56;100535.00;;;17.48;69.70
51313;BME280;37397;53.226;10.400;2022-09-09T08:09:25;100533.91;;;17.52;69.26
51313;BME280;37397;53.226;10.400;2022-09-09T08:12:10;100535.97;;;17.57;69.66
51313;BME280;37397;53.226;10.400;2022-09-09T08:14:39;100527.53;;;17.59;69.87
51313;BME280;37397;53.226;10.400;2022-09-09T08:17:06;100536.72;;;17.63;69.74
51313;BME280;37397;53.226;10.400;2022-09-09T08:19:32;100543.97;;;17.70;69.63
51313;BME280;37397;53.226;10.400;2022-09-09T08:22:06;100549.44;;;17.73;69.67
51313;BME280;37397;53.226;10.400;2022-09-09T08:24:35;100543.38;;;17.77;69.50
51313;BME280;37397;53.226;10.400;2022-09-09T08:27:02;100545.72;;;17.78;69.01
51313;BME280;37397;53.226;10.400;2022-09-09T08:29:28;100540.44;;;17.82;69.36
51313;BME280;37397;53.226;10.400;2022-09-09T08:31:58;100545.16;;;17.85;69.29
51313;BME280;37397;53.226;10.400;2022-09-09T08:34:27;100544.88;;;17.89;69.07
51313;BME280;37397;53.226;10.400;2022-09-09T08:36:56;100549.56;;;17.92;68.94
51313;BME280;37397;53.226;10.400;2022-09-09T08:39:29;100547.94;;;17.97;68.92
51313;BME280;37397;53.226;10.400;2022-09-09T08:42:07;100551.31;;;18.01;69.14
51313;BME280;37397;53.226;10.400;2022-09-09T08:45:02;100551.53;;;18.03;69.03
51313;BME280;37397;53.226;10.400;2022-09-09T08:50:28;100555.16;;;18.09;69.57
51313;BME280;37397;53.226;10.400;2022-09-09T08:53:23;100565.84;;;18.14;69.39
51313;BME280;37397;53.226;10.400;2022-09-09T08:55:55;100569.47;;;18.20;69.63
51313;BME280;37397;53.226;10.400;2022-09-09T08:58:35;100561.28;;;18.25;69.77
51313;BME280;37397;53.226;10.400;2022-09-09T09:01:36;100566.22;;;18.30;69.34
51313;BME280;37397;53.226;10.400;2022-09-09T09:04:33;100567.25;;;18.32;69.69
51313;BME280;37397;53.226;10.400;2022-09-09T09:07:32;100554.34;;;18.33;69.54
51313;BME280;37397;53.226;10.400;2022-09-09T09:10:25;100566.84;;;18.41;69.54
51313;BME280;37397;53.226;10.400;2022-09-09T09:13:13;100572.34;;;18.45;69.94
51313;BME280;37397;53.226;10.400;2022-09-09T09:15:44;100571.72;;;18.52;69.89
51313;BME280;37397;53.226;10.400;2022-09-09T09:18:13;100569.06;;;18.54;69.69
51313;BME280;37397;53.226;10.400;2022-09-09T09:21:10;100569.78;;;18.61;69.45
51313;BME280;37397;53.226;10.400;2022-09-09T09:24:02;100560.03;;;18.64;69.31
51313;BME280;37397;53.226;10.400;2022-09-09T09:26:34;100567.84;;;18.69;69.07
51313;BME280;37397;53.226;10.400;2022-09-09T09:29:12;100564.66;;;18.72;69.18
51313;BME280;37397;53.226;10.400;2022-09-09T09:31:43;100568.22;;;18.78;68.79
51313;BME280;37397;53.226;10.400;2022-09-09T09:34:10;100578.16;;;18.83;68.81
51313;BME280;37397;53.226;10.400;2022-09-09T09:36:46;100572.88;;;18.87;68.45
51313;BME280;37397;53.226;10.400;2022-09-09T09:39:24;100575.22;;;18.89;68.46
51313;BME280;37397;53.226;10.400;2022-09-09T09:42:16;100578.03;;;18.94;68.01
51313;BME280;37397;53.226;10.400;2022-09-09T09:44:49;100568.81;;;18.96;68.10
51313;BME280;37397;53.226;10.400;2022-09-09T09:47:20;100570.06;;;19.01;67.91
51313;BME280;37397;53.226;10.400;2022-09-09T09:50:17;100569.75;;;19.04;67.98
51313;BME280;37397;53.226;10.400;2022-09-09T09:52:54;100572.88;;;19.06;67.62
51313;BME280;37397;53.226;10.400;2022-09-09T09:55:22;100567.56;;;19.10;67.51
51313;BME280;37397;53.226;10.400;2022-09-09T09:57:50;100569.91;;;19.12;67.65
51313;BME280;37397;53.226;10.400;2022-09-09T10:00:22;100571.69;;;19.15;67.14
51313;BME280;37397;53.226;10.400;2022-09-09T10:03:01;100574.03;;;19.17;67.28
51313;BME280;37397;53.226;10.400;2022-09-09T10:05:35;100572.41;;;19.21;67.16
51313;BME280;37397;53.226;10.400;2022-09-09T10:19:10;100567.13;;;19.39;66.52
51313;BME280;37397;53.226;10.400;2022-09-09T10:27:38;100572.75;;;19.50;67.29
51313;BME280;37397;53.226;10.400;2022-09-09T10:30:23;100571.38;;;19.51;66.63
51313;BME280;37397;53.226;10.400;2022-09-09T10:33:12;100568.41;;;19.57;66.53
51313;BME280;37397;53.226;10.400;2022-09-09T10:35:58;100566.50;;;19.59;66.48
51313;BME280;37397;53.226;10.400;2022-09-09T10:41:12;100557.41;;;19.68;66.79
51313;BME280;37397;53.226;10.400;2022-09-09T10:44:05;100557.88;;;19.73;66.50
51313;BME280;37397;53.226;10.400;2022-09-09T10:50:01;100548.81;;;19.82;65.88
51313;BME280;37397;53.226;10.400;2022-09-09T10:52:44;100547.91;;;19.87;65.78
51313;BME280;37397;53.226;10.400;2022-09-09T10:55:17;100552.13;;;19.86;66.33
51313;BME280;37397;53.226;10.400;2022-09-09T10:57:49;100545.91;;;19.95;66.42
51313;BME280;37397;53.226;10.400;2022-09-09T11:00:20;100550.59;;;19.98;66.48
51313;BME280;37397;53.226;10.400;2022-09-09T11:03:05;100549.16;;;20.05;66.05
51313;BME280;37397;53.226;10.400;2022-09-09T11:06:00;100549.59;;;20.09;65.55
51313;BME280;37397;53.226;10.400;2022-09-09T11:08:32;100541.03;;;20.17;65.96
51313;BME280;37397;53.226;10.400;2022-09-09T11:11:17;100544.94;;;20.19;65.38
51313;BME280;37397;53.226;10.400;2022-09-09T11:16:57;100530.09;;;20.23;65.22
51313;BME280;37397;53.226;10.400;2022-09-09T11:19:40;100544.50;;;20.29;65.08
51313;BME280;37397;53.226;10.400;2022-09-09T11:22:16;100545.69;;;20.33;65.09
51313;BME280;37397;53.226;10.400;2022-09-09T11:24:50;100555.63;;;20.38;64.98
51313;BME280;37397;53.226;10.400;2022-09-09T11:27:20;100544.16;;;20.32;64.86
51313;BME280;37397;53.226;10.400;2022-09-09T11:30:17;100545.38;;;20.37;64.79
51313;BME280;37397;53.226;10.400;2022-09-09T11:44:38;100568.75;;;20.52;64.54
51313;BME280;37397;53.226;10.400;2022-09-09T11:47:23;100579.59;;;20.52;64.64
51313;BME280;37397;53.226;10.400;2022-09-09T11:52:47;100572.69;;;20.55;65.19
51313;BME280;37397;53.226;10.400;2022-09-09T11:55:27;100585.84;;;20.56;65.63
51313;BME280;37397;53.226;10.400;2022-09-09T11:58:03;100580.03;;;20.56;65.84
51313;BME280;37397;53.226;10.400;2022-09-09T12:00:45;100586.81;;;20.58;65.79
51313;BME280;37397;53.226;10.400;2022-09-09T12:03:35;100583.50;;;20.54;65.80
51313;BME280;37397;53.226;10.400;2022-09-09T12:06:18;100573.78;;;20.52;65.96
51313;BME280;37397;53.226;10.400;2022-09-09T12:08:50;100584.28;;;20.55;65.76
51313;BME280;37397;53.226;10.400;2022-09-09T12:11:27;100575.34;;;20.53;65.95
51313;BME280;37397;53.226;10.400;2022-09-09T12:13:56;100576.91;;;20.54;65.82
51313;BME280;37397;53.226;10.400;2022-09-09T12:16:35;100572.69;;;20.55;65.61
51313;BME280;37397;53.226;10.400;2022-09-09T12:19:12;100561.09;;;20.55;65.43
51313;BME280;37397;53.226;10.400;2022-09-09T12:25:26;100578.47;;;20.55;66.20
51313;BME280;37397;53.226;10.400;2022-09-09T12:28:02;100582.59;;;20.59;65.73
51313;BME280;37397;53.226;10.400;2022-09-09T12:30:37;100589.16;;;20.60;65.60
51313;BME280;37397;53.226;10.400;2022-09-09T12:33:12;100584.38;;;20.63;65.39
51313;BME280;37397;53.226;10.400;2022-09-09T12:35:42;100591.44;;;20.67;65.58
51313;BME280;37397;53.226;10.400;2022-09-09T12:38:15;100582.94;;;20.69;66.14
51313;BME280;37397;53.226;10.400;2022-09-09T12:40:57;100579.72;;;20.73;65.82
51313;BME280;37397;53.226;10.400;2022-09-09T12:43:26;100580.94;;;20.77;65.76
51313;BME280;37397;53.226;10.400;2022-09-09T12:46:09;100564.84;;;20.76;65.57
51313;BME280;37397;53.226;10.400;2022-09-09T12:48:40;100555.25;;;20.82;65.66
51313;BME280;37397;53.226;10.400;2022-09-09T12:51:21;100542.31;;;20.83;65.91
51313;BME280;37397;53.226;10.400;2022-09-09T12:53:51;100521.25;;;20.82;65.93
51313;BME280;37397;53.226;10.400;2022-09-09T12:56:19;100530.59;;;20.88;65.65
51313;BME280;37397;53.226;10.400;2022-09-09T12:58:49;100526.59;;;20.91;65.55
51313;BME280;37397;53.226;10.400;2022-09-09T13:01:23;100533.16;;;20.92;65.48
51313;BME280;37397;53.226;10.400;2022-09-09T13:03:51;100530.47;;;20.94;65.32
51313;BME280;37397;53.226;10.400;2022-09-09T13:06:24;100540.38;;;20.99;65.59
51313;BME280;37397;53.226;10.400;2022-09-09T13:08:59;100541.59;;;21.03;65.24
51313;BME280;37397;53.226;10.400;2022-09-09T13:11:30;100543.38;;;21.06;65.15
51313;BME280;37397;53.226;10.400;2022-09-09T13:13:58;100550.38;;;21.11;65.60
51313;BME280;37397;53.226;10.400;2022-09-09T13:16:27;100564.34;;;21.12;65.22
51313;BME280;37397;53.226;10.400;2022-09-09T13:19:00;100566.31;;;21.18;65.09
51313;BME280;37397;53.226;10.400;2022-09-09T13:21:33;100572.34;;;21.20;64.28
51313;BME280;37397;53.226;10.400;2022-09-09T13:24:00;100567.28;;;21.20;64.33
51313;BME280;37397;53.226;10.400;2022-09-09T13:26:29;100577.56;;;21.21;64.69
51313;BME280;37397;53.226;10.400;2022-09-09T13:29:15;100581.25;;;21.22;64.13
51313;BME280;37397;53.226;10.400;2022-09-09T13:31:44;100583.25;;;21.27;64.07
51313;BME280;37397;53.226;10.400;2022-09-09T13:34:26;100586.94;;;21.27;63.95
51313;BME280;37397;53.226;10.400;2022-09-09T13:36:58;100593.97;;;21.19;64.15
51313;BME280;37397;53.226;10.400;2022-09-09T13:39:25;100601.81;;;21.24;64.00
51313;BME280;37397;53.226;10.400;2022-09-09T13:41:51;100605.13;;;21.28;63.77
51313;BME280;37397;53.226;10.400;2022-09-09T13:44:23;100600.69;;;21.27;63.84
51313;BME280;37397;53.226;10.400;2022-09-09T13:47:02;100604.91;;;21.26;63.58
51313;BME280;37397;53.226;10.400;2022-09-09T13:49:34;100597.69;;;21.19;64.00
51313;BME280;37397;53.226;10.400;2022-09-09T13:52:08;100597.13;;;21.21;63.75
51313;BME280;37397;53.226;10.400;2022-09-09T13:54:35;100608.38;;;21.24;63.54
51313;BME280;37397;53.226;10.400;2022-09-09T13:57:02;100610.25;;;21.22;63.52
51313;BME280;37397;53.226;10.400;2022-09-09T13:59:28;100619.78;;;21.22;63.15
51313;BME280;37397;53.226;10.400;2022-09-09T14:02:15;100619.22;;;21.24;63.05
51313;BME280;37397;53.226;10.400;2022-09-09T14:04:43;100611.63;;;21.21;63.17
51313;BME280;37397;53.226;10.400;2022-09-09T14:07:16;100586.19;;;21.13;63.33
51313;BME280;37397;53.226;10.400;2022-09-09T14:09:44;100590.44;;;21.12;63.28
51313;BME280;37397;53.226;10.400;2022-09-09T14:12:11;100564.34;;;21.12;63.07
51313;BME280;37397;53.226;10.400;2022-09-09T14:14:38;100559.88;;;21.11;62.97
51313;BME280;37397;53.226;10.400;2022-09-09T14:17:05;100576.25;;;21.09;62.88
51313;BME280;37397;53.226;10.400;2022-09-09T14:19:33;100568.13;;;21.07;62.91
51313;BME280;37397;53.226;10.400;2022-09-09T14:22:00;100577.41;;;21.06;62.87
51313;BME280;37397;53.226;10.400;2022-09-09T14:24:27;100579.09;;;21.01;62.92
51313;BME280;37397;53.226;10.400;2022-09-09T14:26:54;100579.09;;;21.01;62.60